createdAt,value
2018-10-04T00:03:23.171Z,83.81
2018-10-04T00:05:52.047Z,83.86
2018-10-04T00:17:29.489Z,83.36
2018-10-04T00:19:58.394Z,83.03
2018-10-04T00:22:27.269Z,83.13
2018-10-04T00:24:56.127Z,83.19
2018-10-04T00:27:25.017Z,83.16
2018-10-04T00:29:53.924Z,83.17
2018-10-04T00:32:22.817Z,82.93
2018-10-04T00:34:51.751Z,83.06
2018-10-04T00:37:20.663Z,82.99
2018-10-04T00:39:49.596Z,83.13
2018-10-04T00:42:18.471Z,82.98
2018-10-04T00:44:47.398Z,83.15
2018-10-04T00:47:17.808Z,82.97
2018-10-04T00:49:48.334Z,83.26
2018-10-04T00:52:17.276Z,83.30
2018-10-04T00:54:46.532Z,83.20
2018-10-04T00:57:15.445Z,83.19
2018-10-04T00:59:44.348Z,83.12
2018-10-04T01:02:13.226Z,83.13
2018-10-04T01:04:42.159Z,83.04
2018-10-04T01:07:11.011Z,82.77
2018-10-04T01:09:39.919Z,82.89
2018-10-04T01:12:08.792Z,83.33
2018-10-04T01:14:37.662Z,83.57
2018-10-04T01:17:06.566Z,83.46
2018-10-04T01:19:35.444Z,83.47
2018-10-04T01:22:04.303Z,83.63
2018-10-04T01:24:33.189Z,83.81
2018-10-04T01:27:02.103Z,83.90
2018-10-04T01:29:30.950Z,83.88
2018-10-04T01:31:59.941Z,84.06
2018-10-04T01:34:28.819Z,84.05
2018-10-04T01:36:57.670Z,83.89
2018-10-04T01:39:26.522Z,84.07
2018-10-04T01:41:55.408Z,84.21
2018-10-04T01:44:24.286Z,84.30
2018-10-04T01:46:53.195Z,84.28
2018-10-04T01:49:22.148Z,84.18
2018-10-04T01:51:51.030Z,84.02
2018-10-04T01:54:19.916Z,83.97
2018-10-04T01:56:48.770Z,83.93
2018-10-04T01:59:17.711Z,83.80
2018-10-04T02:01:46.624Z,83.87
2018-10-04T02:04:15.540Z,83.86
2018-10-04T02:06:44.633Z,84.07
2018-10-04T02:09:13.478Z,83.84
2018-10-04T02:11:51.733Z,84.01
2018-10-04T02:14:26.160Z,84.20
2018-10-04T02:16:55.055Z,83.98
2018-10-04T02:19:23.938Z,84.16
2018-10-04T02:21:52.822Z,84.12
2018-10-04T02:24:21.726Z,84.37
2018-10-04T02:26:50.657Z,84.08
2018-10-04T02:29:19.519Z,84.40
2018-10-04T02:31:48.391Z,84.64
2018-10-04T02:34:18.499Z,84.86
2018-10-04T02:36:47.553Z,85.12
2018-10-04T02:39:16.432Z,85.12
2018-10-04T02:41:45.348Z,85.60
2018-10-04T02:44:14.198Z,85.58
2018-10-04T02:46:43.155Z,85.71
2018-10-04T02:49:12.184Z,85.71
2018-10-04T02:51:41.120Z,85.63
2018-10-04T02:54:14.162Z,85.97
2018-10-04T02:56:55.893Z,86.13
2018-10-04T02:59:25.796Z,85.70
2018-10-04T03:01:54.704Z,85.85
2018-10-04T03:04:23.611Z,86.05
2018-10-04T03:06:52.517Z,85.88
2018-10-04T03:09:21.435Z,86.30
2018-10-04T03:11:50.308Z,86.38
2018-10-04T03:14:19.162Z,86.60
2018-10-04T03:16:48.107Z,86.76
2018-10-04T03:19:16.985Z,86.72
2018-10-04T03:21:45.850Z,87.15
2018-10-04T03:24:14.800Z,87.01
2018-10-04T03:26:43.626Z,87.37
2018-10-04T03:29:12.596Z,87.35
2018-10-04T03:31:41.516Z,87.31
2018-10-04T03:34:10.395Z,87.45
2018-10-04T03:36:39.256Z,87.32
2018-10-04T03:39:08.561Z,87.51
2018-10-04T03:41:37.448Z,88.09
2018-10-04T03:44:06.380Z,88.13
2018-10-04T03:46:35.243Z,88.48
2018-10-04T03:49:04.129Z,88.83
2018-10-04T03:51:33.017Z,89.27
2018-10-04T03:54:01.887Z,89.65
2018-10-04T03:56:30.827Z,90.06
2018-10-04T03:58:59.743Z,90.21
2018-10-04T04:01:28.627Z,90.10
2018-10-04T04:03:57.589Z,90.31
2018-10-04T04:06:26.425Z,90.16
2018-10-04T04:08:55.404Z,90.29
2018-10-04T04:11:24.335Z,90.97
2018-10-04T04:13:53.207Z,91.09
2018-10-04T04:16:22.104Z,91.15
2018-10-04T04:18:50.992Z,91.07
2018-10-04T04:21:19.869Z,91.06
2018-10-04T04:23:51.270Z,91.13
2018-10-04T04:26:20.467Z,91.29
2018-10-04T04:28:51.328Z,91.02
2018-10-04T04:31:21.103Z,91.26
2018-10-04T04:33:50.083Z,91.29
2018-10-04T04:36:19.518Z,91.57
2018-10-04T04:38:48.511Z,91.34
2018-10-04T04:41:18.020Z,91.43
2018-10-04T04:43:47.963Z,91.48
2018-10-04T04:46:16.854Z,91.57
2018-10-04T04:48:45.832Z,91.57
2018-10-04T04:51:14.995Z,91.50
2018-10-04T04:53:44.860Z,91.50
2018-10-04T04:56:14.250Z,91.35
2018-10-04T04:58:43.379Z,91.18
2018-10-04T05:01:12.570Z,91.33
2018-10-04T05:03:41.755Z,91.28
2018-10-04T05:06:10.887Z,91.28
2018-10-04T05:08:39.993Z,90.91
2018-10-04T05:11:09.217Z,90.58
2018-10-04T05:13:38.328Z,90.56
2018-10-04T05:16:07.548Z,90.49
2018-10-04T05:18:36.742Z,90.31
2018-10-04T05:21:05.850Z,90.40
2018-10-04T05:23:34.996Z,90.50
2018-10-04T05:26:04.207Z,90.62
2018-10-04T05:28:33.331Z,90.64
2018-10-04T05:31:02.600Z,90.69
2018-10-04T05:33:31.803Z,90.71
2018-10-04T05:36:00.956Z,90.55
2018-10-04T05:38:30.095Z,90.55
2018-10-04T05:40:59.300Z,90.68
2018-10-04T05:43:28.429Z,90.75
2018-10-04T05:45:57.615Z,90.72
2018-10-04T05:48:26.895Z,90.59
2018-10-04T05:50:56.105Z,90.55
2018-10-04T05:53:25.317Z,90.38
2018-10-04T05:55:54.381Z,90.44
2018-10-04T05:58:23.602Z,90.70
2018-10-04T06:00:52.879Z,90.57
2018-10-04T06:03:22.119Z,90.36
2018-10-04T06:05:51.302Z,90.56
2018-10-04T06:08:25.504Z,90.40
2018-10-04T06:10:54.627Z,90.39
2018-10-04T06:13:23.823Z,90.43
2018-10-04T06:15:53.004Z,90.31
2018-10-04T06:18:22.199Z,90.25
2018-10-04T06:20:51.410Z,90.12
2018-10-04T06:23:20.544Z,90.28
2018-10-04T06:25:49.713Z,89.99
2018-10-04T06:28:19.007Z,89.80
2018-10-04T06:30:48.245Z,89.85
2018-10-04T06:33:17.415Z,89.89
2018-10-04T06:35:46.699Z,89.76
2018-10-04T06:38:15.946Z,89.68
2018-10-04T06:40:45.083Z,89.31
2018-10-04T06:43:14.204Z,89.09
2018-10-04T06:45:43.311Z,88.62
2018-10-04T06:48:12.328Z,88.63
2018-10-04T06:50:41.267Z,88.38
2018-10-04T06:53:10.348Z,88.07
2018-10-04T06:55:39.559Z,88.17
2018-10-04T06:58:08.710Z,87.93
2018-10-04T07:00:37.945Z,87.73
2018-10-04T07:03:07.143Z,87.63
2018-10-04T07:05:36.246Z,87.45
2018-10-04T07:08:05.466Z,87.19
2018-10-04T07:10:34.722Z,86.71
2018-10-04T07:13:03.913Z,87.01
2018-10-04T07:15:33.301Z,87.09
2018-10-04T07:18:02.600Z,87.04
2018-10-04T07:20:31.849Z,86.84
2018-10-04T07:23:01.001Z,86.13
2018-10-04T07:25:30.143Z,85.64
2018-10-04T07:27:59.271Z,85.40
2018-10-04T07:30:28.436Z,85.16
2018-10-04T07:32:57.649Z,84.66
2018-10-04T07:35:26.737Z,84.28
2018-10-04T07:37:55.893Z,83.59
2018-10-04T07:40:25.012Z,83.24
2018-10-04T07:42:54.097Z,82.67
2018-10-04T07:45:23.210Z,82.30
2018-10-04T07:47:52.390Z,81.84
2018-10-04T07:50:21.776Z,81.14
2018-10-04T07:52:50.822Z,80.94
2018-10-04T07:55:19.915Z,80.87
2018-10-04T07:57:49.153Z,80.56
2018-10-04T08:00:18.585Z,80.35
2018-10-04T08:02:47.708Z,80.30
2018-10-04T08:05:16.845Z,80.32
2018-10-04T08:07:46.032Z,80.17
2018-10-04T08:10:15.436Z,80.32
2018-10-04T08:12:44.607Z,80.10
2018-10-04T08:15:13.732Z,80.20
2018-10-04T08:17:42.828Z,79.94
2018-10-04T08:20:13.829Z,80.04
2018-10-04T08:22:43.611Z,80.01
2018-10-04T08:25:12.749Z,80.06
2018-10-04T08:27:41.961Z,80.30
2018-10-04T08:30:11.901Z,80.43
2018-10-04T08:32:41.622Z,80.50
2018-10-04T08:35:10.785Z,80.36
2018-10-04T08:37:39.907Z,80.43
2018-10-04T08:40:09.043Z,79.72
2018-10-04T08:42:38.193Z,80.10
2018-10-04T08:45:07.483Z,80.03
2018-10-04T08:47:36.657Z,80.02
2018-10-04T08:50:05.563Z,80.19
2018-10-04T08:52:40.000Z,80.28
2018-10-04T08:55:14.184Z,80.26
2018-10-04T08:57:43.120Z,80.25
2018-10-04T09:00:12.030Z,80.20
2018-10-04T09:02:40.932Z,79.78
2018-10-04T09:05:09.841Z,80.27
2018-10-04T09:07:38.800Z,80.13
2018-10-04T09:10:07.704Z,79.94
2018-10-04T09:12:36.588Z,79.70
2018-10-04T09:15:05.559Z,79.72
2018-10-04T09:17:34.448Z,79.66
2018-10-04T09:20:03.388Z,79.50
2018-10-04T09:22:32.303Z,79.04
2018-10-04T09:25:01.225Z,79.31
2018-10-04T09:27:30.103Z,79.13
2018-10-04T09:31:06.865Z,78.98
2018-10-04T09:33:35.835Z,78.75
2018-10-04T09:36:04.729Z,78.37
2018-10-04T09:38:33.641Z,78.76
2018-10-04T09:41:02.585Z,78.60
2018-10-04T09:43:31.556Z,79.21
2018-10-04T09:46:00.478Z,79.48
2018-10-04T09:48:29.368Z,79.11
2018-10-04T09:51:02.431Z,78.93
2018-10-04T09:53:34.505Z,78.83
2018-10-04T09:56:08.771Z,78.71
2018-10-04T09:58:37.680Z,78.25
2018-10-04T10:01:12.076Z,78.02
2018-10-04T10:03:41.801Z,77.15
2018-10-04T10:06:10.704Z,76.71
2018-10-04T10:08:39.628Z,76.52
2018-10-04T10:11:08.554Z,76.11
2018-10-04T10:13:37.441Z,75.34
2018-10-04T10:16:06.427Z,74.22
2018-10-04T10:18:35.308Z,74.25
2018-10-04T10:21:04.233Z,73.29
2018-10-04T10:23:33.094Z,73.37
2018-10-04T10:26:01.985Z,72.51
2018-10-04T10:28:31.088Z,72.29
2018-10-04T10:31:00.019Z,72.41
2018-10-04T10:33:28.916Z,71.84
2018-10-04T10:35:58.093Z,71.65
2018-10-04T10:38:27.076Z,71.52
2018-10-04T10:40:56.021Z,71.28
2018-10-04T10:43:25.013Z,70.53
2018-10-04T10:45:53.886Z,70.63
2018-10-04T10:48:23.060Z,70.30
2018-10-04T10:50:52.551Z,70.57
2018-10-04T10:53:21.558Z,69.95
2018-10-04T10:55:50.680Z,69.62
2018-10-04T10:58:19.528Z,69.71
2018-10-04T11:00:48.425Z,69.59
2018-10-04T11:03:17.321Z,69.27
2018-10-04T11:05:46.238Z,68.61
2018-10-04T11:08:15.180Z,68.43
2018-10-04T11:10:44.107Z,68.04
2018-10-04T11:13:13.026Z,68.71
2018-10-04T11:15:41.958Z,68.04
2018-10-04T11:18:10.860Z,67.82
2018-10-04T11:20:39.768Z,68.62
2018-10-04T11:23:08.763Z,67.51
2018-10-04T11:25:37.615Z,67.38
2018-10-04T11:28:06.570Z,67.46
2018-10-04T11:30:35.471Z,67.63
2018-10-04T11:33:04.531Z,68.15
2018-10-04T11:35:33.355Z,68.16
2018-10-04T11:38:02.279Z,68.20
2018-10-04T11:40:31.133Z,69.00
2018-10-04T11:43:00.079Z,68.95
2018-10-04T11:45:32.280Z,69.25
2018-10-04T11:48:01.188Z,69.98
2018-10-04T11:50:30.116Z,69.78
2018-10-04T11:52:59.007Z,69.87
2018-10-04T11:55:27.929Z,70.41
2018-10-04T11:57:56.943Z,70.45
2018-10-04T12:00:27.089Z,70.56
2018-10-04T12:02:56.066Z,71.18
2018-10-04T12:05:24.988Z,71.50
2018-10-04T12:07:53.967Z,72.16
2018-10-04T12:10:22.840Z,71.45
2018-10-04T12:12:51.787Z,71.52
2018-10-04T12:15:20.772Z,71.23
2018-10-04T12:17:49.720Z,70.81
2018-10-04T12:20:18.596Z,70.96
2018-10-04T12:22:47.506Z,71.22
2018-10-04T12:25:16.496Z,71.03
2018-10-04T12:27:45.364Z,70.72
2018-10-04T12:30:14.345Z,70.40
2018-10-04T12:32:43.281Z,70.61
2018-10-04T12:35:12.191Z,70.77
2018-10-04T12:37:41.182Z,70.68
2018-10-04T12:40:10.027Z,70.40
2018-10-04T12:42:38.970Z,70.23
2018-10-04T12:45:07.890Z,69.94
2018-10-04T12:47:36.786Z,69.84
2018-10-04T12:50:06.354Z,70.30
2018-10-04T12:52:35.462Z,70.15
2018-10-04T12:55:04.381Z,70.53
2018-10-04T12:57:33.257Z,70.66
2018-10-04T13:00:02.224Z,70.95
2018-10-04T13:02:31.074Z,71.20
2018-10-04T13:04:59.941Z,70.78
2018-10-04T13:07:28.873Z,71.18
2018-10-04T13:09:58.762Z,70.97
2018-10-04T13:12:27.678Z,70.83
2018-10-04T13:14:56.543Z,71.02
2018-10-04T13:17:25.432Z,70.76
2018-10-04T13:19:54.300Z,71.79
2018-10-04T13:22:23.181Z,72.00
2018-10-04T13:24:52.170Z,72.35
2018-10-04T13:27:21.088Z,71.90
2018-10-04T13:29:49.986Z,72.67
2018-10-04T13:32:18.913Z,72.75
2018-10-04T13:34:47.850Z,72.74
2018-10-04T13:37:16.818Z,73.16
2018-10-04T13:39:45.739Z,72.92
2018-10-04T13:42:14.616Z,72.59
2018-10-04T13:44:43.495Z,72.79
2018-10-04T13:47:12.356Z,73.10
2018-10-04T13:49:41.243Z,72.69
2018-10-04T13:52:10.233Z,72.61
2018-10-04T13:54:39.116Z,72.46
2018-10-04T13:57:07.971Z,72.62
2018-10-04T13:59:36.856Z,72.05
2018-10-04T14:02:06.172Z,72.34
2018-10-04T14:04:35.290Z,72.53
2018-10-04T14:07:05.215Z,72.64
2018-10-04T14:09:34.135Z,72.18
2018-10-04T14:12:03.153Z,72.71
2018-10-04T14:14:32.065Z,72.46
2018-10-04T14:17:00.985Z,72.72
2018-10-04T14:19:29.921Z,72.53
2018-10-04T14:21:58.753Z,72.81
2018-10-04T14:24:27.708Z,73.17
2018-10-04T14:26:56.778Z,73.40
2018-10-04T14:29:25.692Z,73.15
2018-10-04T14:31:54.562Z,73.29
2018-10-04T14:34:23.482Z,73.41
2018-10-04T14:36:52.390Z,73.27
2018-10-04T14:39:21.280Z,72.66
2018-10-04T14:41:50.194Z,72.75
2018-10-04T14:44:19.147Z,72.92
2018-10-04T14:46:48.054Z,73.23
2018-10-04T14:49:16.919Z,72.49
2018-10-04T14:51:45.882Z,72.67
2018-10-04T14:54:14.762Z,72.73
2018-10-04T14:56:43.675Z,72.63
2018-10-04T14:59:12.583Z,73.19
2018-10-04T15:01:42.317Z,72.54
2018-10-04T15:04:11.496Z,72.52
2018-10-04T15:06:40.441Z,72.58
2018-10-04T15:09:10.848Z,72.72
2018-10-04T15:11:39.832Z,72.50
2018-10-04T15:14:08.866Z,72.17
2018-10-04T15:16:37.772Z,72.56
2018-10-04T15:19:06.744Z,72.49
2018-10-04T15:21:35.615Z,73.17
2018-10-04T15:24:04.559Z,73.00
2018-10-04T15:26:33.442Z,73.54
2018-10-04T15:29:02.340Z,73.04
2018-10-04T15:31:31.316Z,73.25
2018-10-04T15:34:00.338Z,73.54
2018-10-04T15:36:29.240Z,73.86
2018-10-04T15:38:58.148Z,74.36
2018-10-04T15:41:27.064Z,73.91
2018-10-04T15:43:56.099Z,73.98
2018-10-04T15:46:24.937Z,74.02
2018-10-04T15:48:53.966Z,74.20
2018-10-04T15:51:22.869Z,73.72
2018-10-04T15:53:51.827Z,74.14
2018-10-04T15:56:20.822Z,73.92
2018-10-04T15:58:49.759Z,73.47
2018-10-04T16:01:18.728Z,74.01
2018-10-04T16:03:47.616Z,73.95
2018-10-04T16:06:16.531Z,74.22
2018-10-04T16:08:45.363Z,74.16
2018-10-04T16:11:14.367Z,73.96
2018-10-04T16:13:43.355Z,74.46
2018-10-04T16:16:12.238Z,74.90
2018-10-04T16:18:41.191Z,75.18
2018-10-04T16:21:10.141Z,74.91
2018-10-04T16:23:39.382Z,74.88
2018-10-04T16:26:08.386Z,74.48
2018-10-04T16:28:37.526Z,74.62
2018-10-04T16:31:06.684Z,74.72
2018-10-04T16:33:35.576Z,74.99
2018-10-04T16:36:04.552Z,74.65
2018-10-04T16:38:33.934Z,74.78
2018-10-04T16:41:02.849Z,74.97
2018-10-04T16:43:32.055Z,74.67
2018-10-04T16:46:01.356Z,74.33
2018-10-04T16:48:30.527Z,74.58
2018-10-04T16:50:59.460Z,74.78
2018-10-04T16:53:28.360Z,75.15
2018-10-04T16:55:57.521Z,75.51
2018-10-04T16:58:26.424Z,75.48
2018-10-04T17:00:55.303Z,75.47
2018-10-04T17:03:24.215Z,75.70
2018-10-04T17:05:53.163Z,75.58
2018-10-04T17:08:22.363Z,75.88
2018-10-04T17:10:51.264Z,76.40
2018-10-04T17:13:20.277Z,76.75
2018-10-04T17:15:49.724Z,76.19
2018-10-04T17:18:20.044Z,76.19
2018-10-04T17:20:49.619Z,76.24
2018-10-04T17:23:18.972Z,75.87
2018-10-04T17:25:48.960Z,75.73
2018-10-04T17:28:18.300Z,75.96
2018-10-04T17:30:47.644Z,76.43
2018-10-04T17:33:16.612Z,76.40
2018-10-04T17:35:46.932Z,76.04
2018-10-04T17:38:16.233Z,76.17
2018-10-04T17:40:45.244Z,75.79
2018-10-04T17:43:15.139Z,75.44
2018-10-04T17:45:44.245Z,76.02
2018-10-04T17:48:13.378Z,75.87
2018-10-04T17:50:42.296Z,75.72
2018-10-04T17:53:11.717Z,76.26
2018-10-04T17:55:40.715Z,75.84
2018-10-04T17:58:09.665Z,75.82
2018-10-04T18:00:38.576Z,76.04
2018-10-04T18:03:07.829Z,76.22
2018-10-04T18:05:37.103Z,76.18
2018-10-04T18:08:05.983Z,75.97
2018-10-04T18:10:35.332Z,75.94
2018-10-04T18:13:04.575Z,76.26
2018-10-04T18:15:34.914Z,76.06
2018-10-04T18:18:03.804Z,76.34
2018-10-04T18:20:33.069Z,76.04
2018-10-04T18:23:02.028Z,75.83
2018-10-04T18:25:31.458Z,75.96
2018-10-04T18:28:00.680Z,75.54
2018-10-04T18:30:29.638Z,76.13
2018-10-04T18:32:58.926Z,75.77
2018-10-04T18:35:27.828Z,75.96
2018-10-04T18:37:57.642Z,75.96
2018-10-04T18:40:27.952Z,76.37
2018-10-04T18:42:58.386Z,76.76
2018-10-04T18:45:28.002Z,76.74
2018-10-04T18:47:56.898Z,76.85
2018-10-04T18:50:25.856Z,77.35
2018-10-04T18:52:55.297Z,76.95
2018-10-04T18:55:24.780Z,77.01
2018-10-04T18:57:54.083Z,77.38
2018-10-04T19:00:24.416Z,77.29
2018-10-04T19:02:53.407Z,77.71
2018-10-04T19:05:22.933Z,77.76
2018-10-04T19:07:53.090Z,78.34
2018-10-04T19:10:22.314Z,78.47
2018-10-04T19:12:51.281Z,78.89
2018-10-04T19:15:20.992Z,78.72
2018-10-04T19:17:50.248Z,79.48
2018-10-04T19:20:19.278Z,79.42
2018-10-04T19:22:50.080Z,79.62
2018-10-04T19:25:19.016Z,80.39
2018-10-04T19:27:47.940Z,79.92
2018-10-04T19:30:17.160Z,79.85
2018-10-04T19:32:46.296Z,80.19
2018-10-04T19:35:16.024Z,79.99
2018-10-04T19:37:45.708Z,79.85
2018-10-04T19:40:14.920Z,79.72
2018-10-04T19:42:44.090Z,79.40
2018-10-04T19:45:14.344Z,79.47
2018-10-04T19:47:43.309Z,79.84
2018-10-04T19:50:12.365Z,79.48
2018-10-04T19:52:41.470Z,79.53
2018-10-04T19:55:10.834Z,79.51
2018-10-04T19:57:40.145Z,79.13
2018-10-04T20:00:09.380Z,78.64
2018-10-04T20:02:38.339Z,78.68
2018-10-04T20:05:07.448Z,79.02
2018-10-04T20:07:36.571Z,79.23
2018-10-04T20:10:06.036Z,79.19
2018-10-04T20:12:35.144Z,79.70
2018-10-04T20:15:04.148Z,79.55
2018-10-04T20:17:33.116Z,79.24
2018-10-04T20:20:03.228Z,79.47
2018-10-04T20:22:32.332Z,79.45
2018-10-04T20:25:01.387Z,79.65
2018-10-04T20:27:30.305Z,79.93
2018-10-04T20:29:59.478Z,80.09
2018-10-04T20:32:28.425Z,80.15
2018-10-04T20:34:57.493Z,80.16
2018-10-04T20:37:26.392Z,80.27
2018-10-04T20:39:55.315Z,80.05
2018-10-04T20:42:24.212Z,79.43
2018-10-04T20:44:53.090Z,79.25
2018-10-04T20:47:22.067Z,79.63
2018-10-04T20:49:50.960Z,79.64
2018-10-04T20:52:19.836Z,80.01
2018-10-04T20:54:48.723Z,79.28
2018-10-04T20:57:17.658Z,79.24
2018-10-04T20:59:46.535Z,79.03
2018-10-04T21:02:15.439Z,79.23
2018-10-04T21:04:44.281Z,79.27
2018-10-04T21:07:13.179Z,78.93
2018-10-04T21:09:42.059Z,79.01
2018-10-04T21:12:11.011Z,78.45
2018-10-04T21:14:39.997Z,78.36
2018-10-04T21:17:08.842Z,78.60
2018-10-04T21:19:37.721Z,78.56
2018-10-04T21:22:06.889Z,78.41
2018-10-04T21:24:35.714Z,78.54
2018-10-04T21:27:04.644Z,78.87
2018-10-04T21:29:33.808Z,78.43
2018-10-04T21:32:02.465Z,79.30
2018-10-04T21:34:31.357Z,79.08
2018-10-04T21:37:00.224Z,79.23
2018-10-04T21:39:29.224Z,79.31
2018-10-04T21:41:58.146Z,79.36
2018-10-04T21:44:27.048Z,79.23
2018-10-04T21:46:55.960Z,79.17
2018-10-04T21:49:25.132Z,78.86
2018-10-04T21:51:54.485Z,79.03
2018-10-04T21:54:23.483Z,79.15
2018-10-04T21:56:52.551Z,79.58
2018-10-04T21:59:21.681Z,79.60
2018-10-04T22:01:50.627Z,79.15
2018-10-04T22:04:19.589Z,79.01
2018-10-04T22:06:48.726Z,79.14
2018-10-04T22:09:17.855Z,79.47
2018-10-04T22:11:52.691Z,79.59
2018-10-04T22:14:27.582Z,79.63
2018-10-04T22:16:56.705Z,79.78
2018-10-04T22:19:25.999Z,79.48
2018-10-04T22:21:55.148Z,79.65
2018-10-04T22:24:24.333Z,79.58
2018-10-04T22:26:53.601Z,79.91
2018-10-04T22:29:22.717Z,79.86
2018-10-04T22:31:51.931Z,79.85
2018-10-04T22:34:21.129Z,79.67
2018-10-04T22:36:50.334Z,79.44
2018-10-04T22:39:19.472Z,79.49
2018-10-04T22:41:48.499Z,79.18
2018-10-04T22:44:17.556Z,79.53
2018-10-04T22:46:46.616Z,79.04
2018-10-04T22:49:15.731Z,78.94
2018-10-04T22:51:44.855Z,78.87
2018-10-04T22:54:13.975Z,78.47
2018-10-04T22:56:43.166Z,78.41
2018-10-04T22:59:12.167Z,78.38
2018-10-04T23:01:44.987Z,77.87
2018-10-04T23:04:14.540Z,78.02
2018-10-04T23:06:43.614Z,78.02
2018-10-04T23:09:12.738Z,77.91
2018-10-04T23:11:41.831Z,77.63
2018-10-04T23:14:10.708Z,77.63
2018-10-04T23:16:39.619Z,77.48
2018-10-04T23:19:08.527Z,77.96
2018-10-04T23:21:37.398Z,77.87
2018-10-04T23:24:06.279Z,77.56
2018-10-04T23:26:35.186Z,77.74
2018-10-04T23:29:04.151Z,77.59
2018-10-04T23:31:33.228Z,77.20
2018-10-04T23:34:02.107Z,77.62
2018-10-04T23:36:30.998Z,77.73
2018-10-04T23:38:59.901Z,77.37
2018-10-04T23:41:28.787Z,77.10
2018-10-04T23:43:57.659Z,77.08
2018-10-04T23:46:26.544Z,77.15
2018-10-04T23:48:55.524Z,76.75
2018-10-04T23:51:24.451Z,77.07
2018-10-04T23:53:53.387Z,76.88
2018-10-04T23:56:22.303Z,77.26
2018-10-04T23:58:51.201Z,77.18
